Time;durP1;ratioP1;P1;durP2;ratioP2;P2;SDS_P1;SDS_P2;PMS_P1;PMS_P2;Temp;Humidity;BMP_temperature;BMP_pressure;BME280_temperature;BME280_humidity;BME280_pressure;Samples;Min_cycle;Max_cycle;Signal;HPM_P1;HPM_P2
2024/01/02 00:00:52;;;;;;;13.17;2.07;;;6.80;99.90;;;;;;5205456;28;20333;-46
2024/01/02 00:03:23;;;;;;;2.10;1.80;;;6.70;99.90;;;;;;5206297;28;21980;-51
2024/01/02 00:05:54;;;;;;;3.23;2.20;;;6.80;99.90;;;;;;5203528;28;20524;-48
2024/01/02 00:08:25;;;;;;;5.27;2.27;;;6.80;99.90;;;;;;5186988;28;20470;-46
2024/01/02 00:10:55;;;;;;;4.10;1.87;;;6.80;99.90;;;;;;5184900;28;20216;-46
2024/01/02 00:13:26;;;;;;;5.27;2.10;;;6.70;99.90;;;;;;5202400;28;20184;-47
2024/01/02 00:15:57;;;;;;;3.60;1.93;;;6.80;99.90;;;;;;5202704;28;20206;-48
2024/01/02 00:18:27;;;;;;;4.67;2.03;;;6.70;99.90;;;;;;5186459;28;20203;-52
2024/01/02 00:20:58;;;;;;;2.37;1.57;;;6.60;99.90;;;;;;5206028;28;20195;-46
2024/01/02 00:23:29;;;;;;;9.77;2.10;;;6.60;99.90;;;;;;5187683;28;20671;-48
2024/01/02 00:25:59;;;;;;;1.63;1.53;;;6.60;99.90;;;;;;5205025;28;20647;-47
2024/01/02 00:28:30;;;;;;;6.40;2.27;;;6.60;99.90;;;;;;5201000;28;20207;-51
2024/01/02 00:31:00;;;;;;;3.63;1.90;;;6.60;99.90;;;;;;5184586;28;20204;-48
2024/01/02 00:33:31;;;;;;;3.13;1.93;;;6.50;99.90;;;;;;5201840;28;20195;-49
2024/01/02 00:36:02;;;;;;;2.20;1.60;;;6.50;99.90;;;;;;5187918;28;20271;-47
2024/01/02 00:38:33;;;;;;;9.23;1.40;;;6.50;99.90;;;;;;5204351;28;20549;-48
2024/01/02 00:41:05;;;;;;;6.33;1.20;;;6.50;99.90;;;;;;5168793;28;20629;-47
2024/01/02 00:43:35;;;;;;;3.13;1.90;;;6.50;99.90;;;;;;5202133;28;20426;-49
2024/01/02 00:46:06;;;;;;;2.43;2.07;;;6.50;99.90;;;;;;5202981;28;20429;-58
2024/01/02 00:48:37;;;;;;;5.97;1.93;;;6.50;99.90;;;;;;5201810;28;20218;-49
2024/01/02 00:51:07;;;;;;;3.83;1.60;;;6.50;99.90;;;;;;5184532;28;20203;-48
2024/01/02 00:53:38;;;;;;;1.57;1.40;;;6.50;99.90;;;;;;5188215;28;20191;-46
2024/01/02 00:56:09;;;;;;;3.20;1.53;;;6.50;99.90;;;;;;5202744;28;20186;-47
2024/01/02 00:58:39;;;;;;;1.40;1.30;;;6.50;99.90;;;;;;5180441;28;20204;-46
2024/01/02 01:01:10;;;;;;;3.10;1.80;;;6.50;99.90;;;;;;5187939;28;20179;-50
2024/01/02 01:03:40;;;;;;;6.67;1.90;;;6.40;99.90;;;;;;5184946;28;20186;-48
2024/01/02 01:06:11;;;;;;;2.90;1.80;;;6.40;99.90;;;;;;5200106;28;20234;-46
2024/01/02 01:08:42;;;;;;;7.03;1.87;;;6.40;99.90;;;;;;5201623;28;20207;-46
2024/01/02 01:11:12;;;;;;;1.30;1.30;;;6.40;99.90;;;;;;5188692;28;20199;-47
2024/01/02 01:13:43;;;;;;;9.30;1.97;;;6.30;99.90;;;;;;5199015;28;20203;-47
2024/01/02 01:16:13;;;;;;;3.27;1.63;;;6.30;99.90;;;;;;5202323;28;20190;-51
2024/01/02 01:18:44;;;;;;;3.40;1.70;;;6.30;99.90;;;;;;5184517;28;20199;-46
2024/01/02 01:21:15;;;;;;;6.03;2.40;;;6.40;99.90;;;;;;5183860;28;20278;-48
2024/01/02 01:23:46;;;;;;;3.17;1.57;;;6.40;99.90;;;;;;5202544;28;20580;-47
2024/01/02 01:26:16;;;;;;;4.40;1.80;;;6.40;99.90;;;;;;5202659;28;20290;-48
2024/01/02 01:28:47;;;;;;;1.90;1.80;;;6.30;99.90;;;;;;5199677;28;20208;-47
2024/01/02 01:31:18;;;;;;;3.77;1.50;;;6.30;99.90;;;;;;5182588;28;20208;-48
2024/01/02 01:33:48;;;;;;;3.60;1.63;;;6.30;99.90;;;;;;5203112;28;20191;-48
2024/01/02 01:36:19;;;;;;;2.20;1.77;;;6.30;99.90;;;;;;5185406;28;20241;-46
2024/01/02 01:38:49;;;;;;;7.47;2.17;;;6.30;99.90;;;;;;5201000;28;20203;-47
2024/01/02 01:41:20;;;;;;;11.27;2.03;;;6.30;99.90;;;;;;5199853;28;20191;-48
2024/01/02 01:43:51;;;;;;;3.67;1.87;;;6.20;99.90;;;;;;5208821;28;20250;-46
2024/01/02 01:46:22;;;;;;;6.03;1.83;;;6.10;99.90;;;;;;5194092;28;20187;-48
2024/01/02 01:48:53;;;;;;;3.33;1.63;;;6.10;99.90;;;;;;5206120;28;20554;-48
2024/01/02 01:51:23;;;;;;;4.10;1.33;;;6.10;99.90;;;;;;5184254;28;20476;-47
2024/01/02 01:53:55;;;;;;;4.10;1.60;;;6.00;99.90;;;;;;5201003;28;20186;-47
2024/01/02 01:56:26;;;;;;;3.57;1.70;;;6.00;99.90;;;;;;5185417;28;20663;-46
2024/01/02 01:58:57;;;;;;;6.43;2.00;;;6.10;99.90;;;;;;5183800;28;20462;-46
2024/01/02 02:01:28;;;;;;;7.70;1.73;;;6.10;99.90;;;;;;5201384;28;20183;-46
2024/01/02 02:04:00;;;;;;;4.87;2.17;;;6.10;99.90;;;;;;5178944;28;20579;-48
2024/01/02 02:06:31;;;;;;;6.93;2.03;;;6.00;99.90;;;;;;5202227;28;20444;-49
2024/01/02 02:09:02;;;;;;;5.13;1.60;;;5.90;99.90;;;;;;5185219;28;20588;-46
2024/01/02 02:11:34;;;;;;;6.47;2.50;;;5.90;99.90;;;;;;5191482;28;20203;-47
2024/01/02 02:14:06;;;;;;;3.17;1.70;;;5.90;99.90;;;;;;5185878;28;20924;-47
2024/01/02 02:16:42;;;;;;;6.23;1.83;;;5.80;99.90;;;;;;5187698;28;20856;-47
2024/01/02 02:19:12;;;;;;;4.80;1.83;;;5.60;99.90;;;;;;5192790;28;20476;-47
2024/01/02 02:21:43;;;;;;;8.43;2.40;;;5.50;99.90;;;;;;5207953;28;20469;-47
2024/01/02 02:24:14;;;;;;;1.77;1.20;;;5.50;99.90;;;;;;5204146;28;20187;-47
2024/01/02 02:26:44;;;;;;;3.33;1.53;;;5.40;99.90;;;;;;5205373;28;20196;-46
2024/01/02 02:29:15;;;;;;;4.30;1.77;;;5.40;99.90;;;;;;5191106;28;20207;-48
2024/01/02 02:31:45;;;;;;;5.63;1.90;;;5.50;99.90;;;;;;5202219;28;20223;-47
2024/01/02 02:34:16;;;;;;;12.77;2.10;;;5.50;99.90;;;;;;5208137;28;20710;-47
2024/01/02 02:36:47;;;;;;;9.60;2.13;;;5.50;99.90;;;;;;5189809;28;20191;-47
2024/01/02 02:39:17;;;;;;;5.30;1.73;;;5.40;99.90;;;;;;5202710;28;20219;-49
2024/01/02 02:41:48;;;;;;;9.60;2.40;;;5.40;99.90;;;;;;5206202;28;20286;-48
2024/01/02 02:44:19;;;;;;;3.20;1.87;;;5.20;99.90;;;;;;5188146;28;20179;-47
2024/01/02 02:46:49;;;;;;;3.77;1.80;;;5.00;99.90;;;;;;5189029;28;20282;-48
2024/01/02 02:49:20;;;;;;;6.13;2.27;;;4.90;99.90;;;;;;5206628;28;20671;-47
2024/01/02 02:51:51;;;;;;;1.73;1.63;;;4.80;99.90;;;;;;5203892;28;20237;-46
2024/01/02 02:54:21;;;;;;;11.80;4.83;;;4.70;99.90;;;;;;5185785;28;20191;-47
2024/01/02 02:56:52;;;;;;;11.13;2.40;;;4.60;99.90;;;;;;5187695;28;20445;-48
2024/01/02 02:59:23;;;;;;;4.47;1.77;;;4.80;99.90;;;;;;5196337;28;20702;-47
2024/01/02 03:01:53;;;;;;;11.90;2.57;;;4.70;99.90;;;;;;5200960;28;20223;-47
2024/01/02 03:04:24;;;;;;;7.17;2.10;;;4.60;99.90;;;;;;5207109;28;20208;-47
2024/01/02 03:06:55;;;;;;;2.27;1.80;;;4.50;99.90;;;;;;5191219;28;20198;-48
2024/01/02 03:09:26;;;;;;;9.93;2.13;;;4.60;99.90;;;;;;5189908;28;20729;-46
2024/01/02 03:11:57;;;;;;;6.23;1.70;;;4.50;99.90;;;;;;5191851;28;20472;-47
2024/01/02 03:14:27;;;;;;;7.17;2.00;;;4.50;99.90;;;;;;5184816;28;20191;-47
2024/01/02 03:16:58;;;;;;;10.83;1.90;;;4.40;99.90;;;;;;5192385;28;20187;-46
2024/01/02 03:19:29;;;;;;;10.33;1.90;;;4.50;99.90;;;;;;5206078;28;20648;-46
2024/01/02 03:21:59;;;;;;;18.27;2.70;;;4.70;99.90;;;;;;5183737;28;20285;-48
2024/01/02 03:24:30;;;;;;;7.40;2.70;;;4.90;99.90;;;;;;5202417;28;20194;-47
2024/01/02 03:27:01;;;;;;;9.10;2.30;;;4.70;99.90;;;;;;5188131;28;20278;-47
2024/01/02 03:29:31;;;;;;;5.03;2.23;;;4.50;99.90;;;;;;5187082;28;20214;-50
2024/01/02 03:32:02;;;;;;;13.57;2.77;;;4.40;99.90;;;;;;5185783;28;20683;-47
2024/01/02 03:34:37;;;;;;;13.00;2.70;;;4.60;99.90;;;;;;5197829;28;20639;-47
2024/01/02 03:37:08;;;;;;;11.63;3.00;;;4.60;99.90;;;;;;5189650;28;20596;-49
2024/01/02 03:39:38;;;;;;;14.57;3.53;;;4.50;99.90;;;;;;5188144;28;20549;-47
2024/01/02 03:42:09;;;;;;;11.60;2.80;;;4.60;99.90;;;;;;5203225;28;20482;-47
2024/01/02 03:44:40;;;;;;;10.90;3.33;;;4.40;99.90;;;;;;5187765;28;20191;-46
2024/01/02 03:47:10;;;;;;;11.80;2.80;;;4.30;99.90;;;;;;5187540;28;20221;-47
2024/01/02 03:49:41;;;;;;;11.80;2.00;;;4.70;99.90;;;;;;5189611;28;20292;-48
2024/01/02 03:52:12;;;;;;;6.50;2.73;;;4.50;99.90;;;;;;5208296;28;20207;-47
2024/01/02 03:54:42;;;;;;;8.33;2.80;;;4.30;99.90;;;;;;5210050;28;20439;-45
2024/01/02 03:57:13;;;;;;;10.07;2.97;;;4.20;99.90;;;;;;5207864;28;20190;-48
2024/01/02 03:59:44;;;;;;;7.80;3.47;;;4.30;99.90;;;;;;5197653;28;20205;-46
2024/01/02 04:02:14;;;;;;;12.60;3.40;;;4.20;99.90;;;;;;5203564;28;20196;-48
2024/01/02 04:04:45;;;;;;;16.17;3.30;;;4.20;99.90;;;;;;5201271;28;20276;-51
2024/01/02 04:07:16;;;;;;;11.40;2.40;;;4.20;99.90;;;;;;5204925;28;20197;-47
2024/01/02 04:09:46;;;;;;;8.93;3.10;;;4.20;99.90;;;;;;5204878;28;20310;-50
2024/01/02 04:12:17;;;;;;;17.40;3.37;;;4.00;99.90;;;;;;5205882;28;20237;-52
2024/01/02 04:14:47;;;;;;;9.03;3.53;;;4.00;99.90;;;;;;5205260;28;20184;-54
2024/01/02 04:17:18;;;;;;;13.03;3.13;;;4.00;99.90;;;;;;5187965;28;20616;-48
2024/01/02 04:19:49;;;;;;;16.20;3.20;;;3.90;99.90;;;;;;5203562;28;20213;-48
2024/01/02 04:22:19;;;;;;;11.63;2.73;;;4.10;99.90;;;;;;5187284;28;20185;-46
2024/01/02 04:24:50;;;;;;;7.63;2.90;;;3.90;99.90;;;;;;5202246;28;20188;-47
2024/01/02 04:27:20;;;;;;;19.87;3.23;;;3.80;99.90;;;;;;5189436;28;20171;-48
2024/01/02 04:29:51;;;;;;;11.70;2.77;;;3.80;99.90;;;;;;5189893;28;20239;-48
2024/01/02 04:32:22;;;;;;;5.67;2.50;;;3.90;99.90;;;;;;5200747;28;20645;-46
2024/01/02 04:34:52;;;;;;;21.23;3.17;;;4.00;99.90;;;;;;5206857;28;20183;-47
2024/01/02 04:37:23;;;;;;;13.80;3.10;;;4.00;99.90;;;;;;5208091;28;20268;-46
2024/01/02 04:39:53;;;;;;;10.07;2.60;;;3.80;99.90;;;;;;5205946;28;20200;-47
2024/01/02 04:42:24;;;;;;;9.73;3.30;;;3.70;99.90;;;;;;5203640;28;20239;-46
2024/01/02 04:44:55;;;;;;;6.43;2.20;;;3.80;99.90;;;;;;5201851;28;20260;-48
2024/01/02 04:47:25;;;;;;;12.13;2.97;;;3.70;99.90;;;;;;5189379;28;20644;-48
2024/01/02 04:49:56;;;;;;;9.90;2.53;;;3.60;99.90;;;;;;5205050;28;20216;-49
2024/01/02 04:52:27;;;;;;;13.80;2.80;;;3.60;99.90;;;;;;5185549;28;20626;-47
2024/01/02 04:54:59;;;;;;;6.10;2.50;;;3.70;99.90;;;;;;5203300;28;20434;-47
2024/01/02 04:57:30;;;;;;;14.43;3.23;;;3.80;99.90;;;;;;5172149;28;20180;-47
2024/01/02 05:00:00;;;;;;;13.50;3.20;;;3.70;99.90;;;;;;5201910;28;20810;-48
2024/01/02 05:02:32;;;;;;;6.60;2.57;;;3.60;99.90;;;;;;5193800;28;20181;-50
2024/01/02 05:05:03;;;;;;;20.00;3.10;;;3.70;99.90;;;;;;5206405;28;20191;-47
2024/01/02 05:07:34;;;;;;;13.07;3.60;;;3.60;99.90;;;;;;5207348;28;20416;-46
2024/01/02 05:10:05;;;;;;;16.80;4.67;;;3.60;99.90;;;;;;5203659;28;20496;-48
2024/01/02 05:12:36;;;;;;;14.77;3.80;;;3.60;99.90;;;;;;5201638;28;20299;-50
2024/01/02 05:15:07;;;;;;;7.30;2.10;;;3.70;99.90;;;;;;5184831;28;20183;-49
2024/01/02 05:17:38;;;;;;;3.63;1.80;;;3.70;99.90;;;;;;5201170;28;20653;-48
2024/01/02 05:20:09;;;;;;;7.50;2.73;;;3.70;99.90;;;;;;5181424;28;20469;-48
2024/01/02 05:22:39;;;;;;;10.57;2.80;;;3.60;99.90;;;;;;5204585;28;20188;-49
2024/01/02 05:25:10;;;;;;;15.87;3.53;;;3.70;99.90;;;;;;5198959;28;20189;-48
2024/01/02 05:27:40;;;;;;;24.93;3.20;;;3.70;99.90;;;;;;5200358;28;20230;-48
2024/01/02 05:30:11;;;;;;;5.60;2.60;;;3.60;99.90;;;;;;5182893;28;20199;-48
2024/01/02 05:32:42;;;;;;;11.53;3.40;;;3.60;99.90;;;;;;5176036;28;20230;-49
2024/01/02 05:35:12;;;;;;;8.87;2.70;;;3.60;99.90;;;;;;5181959;28;20262;-48
2024/01/02 05:37:43;;;;;;;10.93;3.00;;;3.60;99.90;;;;;;5188225;28;20275;-48
2024/01/02 05:40:14;;;;;;;6.90;3.13;;;3.60;99.90;;;;;;5189114;28;20265;-49
2024/01/02 05:42:44;;;;;;;30.10;3.53;;;3.50;99.90;;;;;;5181987;28;20186;-49
2024/01/02 05:45:15;;;;;;;7.27;2.97;;;3.50;99.90;;;;;;5201650;28;20333;-48
2024/01/02 05:47:46;;;;;;;4.00;2.00;;;3.50;99.90;;;;;;5204009;28;20631;-49
2024/01/02 05:50:17;;;;;;;7.03;2.50;;;3.50;99.90;;;;;;5186282;28;20680;-49
2024/01/02 05:52:48;;;;;;;8.30;2.70;;;3.40;99.90;;;;;;5205439;28;20528;-49
2024/01/02 05:55:18;;;;;;;9.70;3.10;;;3.40;99.90;;;;;;5184657;28;20477;-49
2024/01/02 05:57:49;;;;;;;8.10;3.03;;;3.50;99.90;;;;;;5203184;28;20183;-48
2024/01/02 06:00:20;;;;;;;13.47;2.17;;;3.50;99.90;;;;;;5197495;28;20200;-49
2024/01/02 06:02:52;;;;;;;9.17;2.33;;;3.40;99.90;;;;;;5202074;28;20850;-48
2024/01/02 06:05:23;;;;;;;12.30;2.90;;;3.50;99.90;;;;;;5185305;28;20434;-49
2024/01/02 06:07:54;;;;;;;9.40;3.07;;;3.50;99.90;;;;;;5203417;28;20468;-49
2024/01/02 06:10:24;;;;;;;9.77;3.23;;;3.50;99.90;;;;;;5193324;28;20217;-48
2024/01/02 06:12:55;;;;;;;8.70;2.07;;;3.50;99.90;;;;;;5185832;28;20215;-48
2024/01/02 06:15:26;;;;;;;5.30;2.30;;;3.50;99.90;;;;;;5187344;28;20185;-48
2024/01/02 06:17:57;;;;;;;10.13;4.27;;;3.60;99.90;;;;;;5202638;28;20763;-48
2024/01/02 06:20:28;;;;;;;6.70;2.30;;;3.60;99.90;;;;;;5203739;28;20196;-48
2024/01/02 06:22:58;;;;;;;6.53;2.53;;;3.60;99.90;;;;;;5192229;28;20428;-48
2024/01/02 06:25:29;;;;;;;15.80;3.30;;;3.60;99.90;;;;;;5186517;28;20184;-50
2024/01/02 06:28:00;;;;;;;8.43;2.70;;;3.60;99.90;;;;;;5187657;28;20188;-48
2024/01/02 06:30:30;;;;;;;11.90;3.10;;;3.60;99.90;;;;;;5202489;28;20200;-50
2024/01/02 06:33:01;;;;;;;10.10;2.90;;;3.60;99.90;;;;;;5203219;28;20195;-49
2024/01/02 06:35:31;;;;;;;8.67;3.10;;;3.60;99.90;;;;;;5206574;28;20299;-49
2024/01/02 06:38:02;;;;;;;18.83;3.30;;;3.60;99.90;;;;;;5190398;28;20247;-49
2024/01/02 06:40:33;;;;;;;8.13;2.20;;;3.70;99.90;;;;;;5187693;28;20208;-47
2024/01/02 06:43:04;;;;;;;16.70;3.07;;;3.70;99.90;;;;;;5187689;28;20188;-48
2024/01/02 06:45:35;;;;;;;8.23;2.57;;;3.60;99.90;;;;;;5201524;28;20652;-47
2024/01/02 06:48:06;;;;;;;15.10;3.80;;;3.60;99.90;;;;;;5189717;28;20439;-49
2024/01/02 06:50:37;;;;;;;14.90;2.60;;;3.60;99.90;;;;;;5202857;28;23728;-48
2024/01/02 06:53:07;;;;;;;13.00;2.77;;;3.60;99.90;;;;;;5187038;28;20427;-48
2024/01/02 06:55:38;;;;;;;3.10;2.80;;;3.60;99.90;;;;;;5205488;28;20550;-50
2024/01/02 06:58:08;;;;;;;10.43;3.13;;;3.60;99.90;;;;;;5187380;28;20189;-49
2024/01/02 07:00:39;;;;;;;11.93;3.20;;;3.60;99.90;;;;;;5186794;28;20229;-48
2024/01/02 07:03:10;;;;;;;8.70;3.13;;;3.60;99.90;;;;;;5186508;28;20180;-48
2024/01/02 07:05:40;;;;;;;18.93;3.20;;;3.60;99.90;;;;;;5183523;28;20585;-49
2024/01/02 07:08:11;;;;;;;8.93;3.10;;;3.60;99.90;;;;;;5183965;28;20180;-48
2024/01/02 07:10:42;;;;;;;11.70;2.73;;;3.70;99.90;;;;;;5203189;28;20184;-49
2024/01/02 07:13:12;;;;;;;6.70;2.80;;;3.80;99.90;;;;;;5188427;28;20184;-48
2024/01/02 07:15:43;;;;;;;12.17;2.60;;;3.70;99.90;;;;;;5203352;28;20637;-48
2024/01/02 07:18:13;;;;;;;4.67;2.67;;;3.70;99.90;;;;;;5206190;28;20235;-49
2024/01/02 07:20:44;;;;;;;6.40;2.70;;;3.80;99.90;;;;;;5203426;28;20287;-48
2024/01/02 07:23:15;;;;;;;13.77;3.07;;;3.80;99.90;;;;;;5203777;28;20208;-48
2024/01/02 07:25:46;;;;;;;15.20;3.30;;;3.80;99.90;;;;;;5185928;28;20188;-49
2024/01/02 07:28:16;;;;;;;3.13;2.50;;;3.80;99.90;;;;;;5189316;28;20435;-47
2024/01/02 07:30:48;;;;;;;14.13;3.13;;;3.80;99.90;;;;;;5183033;28;20177;-48
2024/01/02 07:33:19;;;;;;;7.23;2.50;;;3.80;99.90;;;;;;5184506;28;20246;-49
2024/01/02 07:35:50;;;;;;;11.77;2.47;;;3.90;99.90;;;;;;5183821;28;20521;-49
2024/01/02 07:38:21;;;;;;;7.43;2.60;;;3.80;99.90;;;;;;5186808;28;23148;-49
2024/01/02 07:40:53;;;;;;;10.80;3.60;;;3.90;99.90;;;;;;5201763;28;20218;-49
2024/01/02 07:43:24;;;;;;;9.03;3.87;;;3.90;99.90;;;;;;5203530;28;21003;-49
2024/01/02 07:45:55;;;;;;;9.77;2.93;;;3.90;99.90;;;;;;5186040;28;20438;-49
2024/01/02 07:48:26;;;;;;;13.07;3.40;;;3.90;99.90;;;;;;5186856;28;20545;-46
2024/01/02 07:50:57;;;;;;;6.77;2.37;;;3.90;99.90;;;;;;5202368;28;20886;-48
2024/01/02 07:53:27;;;;;;;4.33;2.30;;;3.90;99.90;;;;;;5186516;28;20180;-50
2024/01/02 07:55:58;;;;;;;3.80;2.13;;;4.00;99.90;;;;;;5202468;28;20183;-49
2024/01/02 07:58:29;;;;;;;11.17;2.93;;;4.00;99.90;;;;;;5169623;28;20312;-49
2024/01/02 08:00:59;;;;;;;7.07;2.17;;;4.00;99.90;;;;;;5201664;28;20241;-49
2024/01/02 08:03:30;;;;;;;13.23;2.90;;;4.00;99.90;;;;;;5202861;28;20204;-48
2024/01/02 08:06:00;;;;;;;9.50;2.73;;;4.00;99.90;;;;;;5202263;28;20184;-48
2024/01/02 08:08:31;;;;;;;13.83;2.70;;;4.00;99.90;;;;;;5185298;28;20219;-49
2024/01/02 08:11:04;;;;;;;9.63;2.40;;;4.00;99.90;;;;;;5201757;28;20212;-48
2024/01/02 08:13:34;;;;;;;4.93;2.53;;;4.00;99.90;;;;;;5202562;28;20175;-49
2024/01/02 08:16:05;;;;;;;9.00;2.83;;;4.00;99.90;;;;;;5168746;28;20438;-49
2024/01/02 08:18:41;;;;;;;8.70;3.13;;;4.20;99.90;;;;;;5201485;28;20656;-48
2024/01/02 08:21:11;;;;;;;5.50;2.80;;;4.20;99.90;;;;;;5195651;28;20186;-49
2024/01/02 08:23:42;;;;;;;9.77;4.00;;;4.20;99.90;;;;;;5184083;28;20439;-48
2024/01/02 08:26:13;;;;;;;8.80;3.70;;;4.40;99.90;;;;;;5204578;28;20183;-48
2024/01/02 08:28:44;;;;;;;11.60;2.97;;;4.50;99.90;;;;;;5200317;28;20200;-48
2024/01/02 08:31:14;;;;;;;6.57;2.07;;;4.50;99.90;;;;;;5197290;28;20191;-50
2024/01/02 08:33:45;;;;;;;11.00;2.63;;;4.60;99.90;;;;;;5182323;28;21027;-48
2024/01/02 08:36:17;;;;;;;5.07;2.23;;;4.60;99.90;;;;;;5185328;28;20180;-50
2024/01/02 08:38:47;;;;;;;5.00;2.10;;;4.70;99.90;;;;;;5181634;28;20204;-49
2024/01/02 08:41:18;;;;;;;7.73;3.50;;;4.60;99.90;;;;;;5203107;28;20450;-48
2024/01/02 08:43:49;;;;;;;6.87;2.17;;;4.50;99.90;;;;;;5181387;28;20190;-50
2024/01/02 08:46:20;;;;;;;8.13;2.33;;;4.50;99.90;;;;;;5184279;28;20184;-48
2024/01/02 08:48:50;;;;;;;6.53;2.50;;;4.40;99.90;;;;;;5183944;28;20211;-49
2024/01/02 08:51:21;;;;;;;9.27;2.30;;;4.40;99.90;;;;;;5198507;28;20208;-49
2024/01/02 08:53:51;;;;;;;13.73;2.70;;;4.50;99.90;;;;;;5200773;28;20180;-48
2024/01/02 08:56:22;;;;;;;12.30;1.90;;;4.50;99.90;;;;;;5184785;28;20221;-48
2024/01/02 08:58:53;;;;;;;9.90;2.20;;;4.50;99.90;;;;;;5201486;28;20310;-50
2024/01/02 09:01:24;;;;;;;12.50;2.37;;;4.50;99.90;;;;;;5198922;28;20183;-48
2024/01/02 09:03:55;;;;;;;7.57;1.90;;;4.50;99.90;;;;;;5182713;28;20325;-48
2024/01/02 09:06:25;;;;;;;13.20;2.83;;;4.50;99.90;;;;;;5201366;28;20542;-49
2024/01/02 09:08:57;;;;;;;7.60;1.83;;;4.50;99.90;;;;;;5201210;28;20217;-49
2024/01/02 09:11:27;;;;;;;8.63;2.67;;;4.40;99.90;;;;;;5181773;28;20228;-49
2024/01/02 09:13:58;;;;;;;8.80;2.57;;;4.40;99.90;;;;;;5188589;28;20439;-50
2024/01/02 09:16:32;;;;;;;7.57;2.20;;;4.40;99.90;;;;;;5197596;28;20189;-50
2024/01/02 09:19:03;;;;;;;4.90;2.70;;;4.40;99.90;;;;;;5181499;28;20200;-50
2024/01/02 09:21:34;;;;;;;5.20;2.50;;;4.50;99.90;;;;;;5199809;28;20550;-50
2024/01/02 09:24:04;;;;;;;11.00;2.57;;;4.50;99.90;;;;;;5196467;28;20212;-51
2024/01/02 09:26:39;;;;;;;3.60;2.37;;;4.50;99.90;;;;;;5189712;28;20201;-50
2024/01/02 09:29:10;;;;;;;4.53;2.50;;;4.50;99.90;;;;;;5199901;28;20720;-50
2024/01/02 09:31:41;;;;;;;12.97;3.30;;;4.60;99.90;;;;;;5182683;28;20459;-49
2024/01/02 09:34:12;;;;;;;11.23;3.10;;;4.60;99.90;;;;;;5180663;28;20470;-51
2024/01/02 09:36:42;;;;;;;6.97;2.50;;;4.60;99.90;;;;;;5182777;28;20212;-50
2024/01/02 09:39:14;;;;;;;17.03;2.90;;;4.50;99.90;;;;;;5200163;28;20459;-52
2024/01/02 09:42:28;;;;;;;6.47;2.67;;;4.60;99.90;;;;;;5184564;28;21178;-50
2024/01/02 09:45:09;;;;;;;14.63;2.77;;;4.60;99.90;;;;;;5180074;28;20485;-50
2024/01/02 09:47:40;;;;;;;12.80;2.70;;;4.60;99.90;;;;;;5201905;28;20434;-50
2024/01/02 09:50:17;;;;;;;7.20;2.10;;;4.50;99.90;;;;;;5184642;28;20500;-49
2024/01/02 09:53:16;;;;;;;11.10;2.23;;;4.50;99.90;;;;;;5197111;28;20732;-50
2024/01/02 09:55:55;;;;;;;3.93;3.00;;;4.60;99.90;;;;;;5181282;28;20436;-49
2024/01/02 09:58:29;;;;;;;5.20;2.50;;;4.60;99.90;;;;;;5199556;28;20468;-52
2024/01/02 10:01:25;;;;;;;7.77;2.67;;;4.50;99.90;;;;;;5197164;28;20856;-49
2024/01/02 10:04:42;;;;;;;5.73;2.60;;;4.40;99.90;;;;;;5179575;28;20431;-49
2024/01/02 10:07:15;;;;;;;5.60;2.63;;;4.40;99.90;;;;;;5184671;28;20443;-50
2024/01/02 10:10:09;;;;;;;10.30;3.80;;;4.40;99.90;;;;;;5192825;28;20479;-50
2024/01/02 10:13:27;;;;;;;8.80;3.13;;;4.40;99.90;;;;;;5184659;28;20454;-50
2024/01/02 10:16:20;;;;;;;8.23;3.07;;;4.40;99.90;;;;;;5187130;28;20424;-50
2024/01/02 10:19:07;;;;;;;11.53;3.17;;;4.40;99.90;;;;;;5198011;28;20834;-49
2024/01/02 10:21:48;;;;;;;7.13;4.03;;;4.40;99.90;;;;;;5181238;28;20840;-51
2024/01/02 10:24:47;;;;;;;10.33;3.53;;;4.40;99.90;;;;;;5182202;28;20461;-51
2024/01/02 10:27:25;;;;;;;13.33;4.57;;;4.40;99.90;;;;;;5196197;28;20442;-51
2024/01/02 10:30:06;;;;;;;15.13;3.73;;;4.40;99.90;;;;;;5182819;28;20454;-50
2024/01/02 10:33:02;;;;;;;12.23;3.70;;;4.40;99.90;;;;;;5181025;28;20464;-50
2024/01/02 10:35:42;;;;;;;11.17;3.67;;;4.40;99.90;;;;;;5190836;28;20490;-50
2024/01/02 10:38:30;;;;;;;13.53;3.67;;;4.40;99.90;;;;;;5186193;28;20454;-50
2024/01/02 10:41:26;;;;;;;10.57;4.60;;;4.40;99.90;;;;;;5188707;28;20518;-50
2024/01/02 10:44:30;;;;;;;21.10;4.67;;;4.40;99.90;;;;;;5201466;28;20484;-50
2024/01/02 10:47:13;;;;;;;14.43;4.73;;;4.40;99.90;;;;;;5204413;28;20427;-49
2024/01/02 10:49:59;;;;;;;11.33;5.00;;;4.30;99.90;;;;;;5202156;28;20446;-50
2024/01/02 10:52:44;;;;;;;8.27;5.07;;;4.30;99.90;;;;;;5179411;28;20684;-49
2024/01/02 10:55:23;;;;;;;6.53;5.57;;;4.30;99.90;;;;;;5191764;28;20486;-49
2024/01/02 10:58:10;;;;;;;8.40;4.83;;;4.30;99.90;;;;;;5201012;28;20455;-51
2024/01/02 11:01:03;;;;;;;9.17;5.00;;;4.40;99.90;;;;;;5185089;28;20457;-51
2024/01/02 11:03:46;;;;;;;14.27;5.17;;;4.50;99.90;;;;;;5185160;28;20466;-50
2024/01/02 11:06:33;;;;;;;13.93;7.20;;;4.40;99.90;;;;;;5202064;28;20488;-51
2024/01/02 11:09:31;;;;;;;13.83;6.70;;;4.40;99.90;;;;;;5228640;23;20588;-52
2024/01/02 11:12:07;;;;;;;13.97;7.47;;;4.50;99.90;;;;;;5236516;28;20466;-52
2024/01/02 11:14:40;;;;;;;11.83;6.10;;;4.50;99.90;;;;;;5227292;28;20579;-52
2024/01/02 11:17:13;;;;;;;21.47;7.27;;;4.60;99.90;;;;;;5225961;28;20770;-50
2024/01/02 11:20:05;;;;;;;21.90;6.20;;;4.50;99.90;;;;;;5243860;28;20606;-50
2024/01/02 11:22:50;;;;;;;14.93;7.30;;;4.50;99.90;;;;;;5240940;28;20435;-52
2024/01/02 11:25:27;;;;;;;6.90;5.70;;;4.50;99.90;;;;;;5241115;28;20454;-51
2024/01/02 11:28:00;;;;;;;8.93;6.23;;;4.50;99.90;;;;;;5223493;28;20447;-53
2024/01/02 11:30:35;;;;;;;7.53;6.67;;;4.50;99.90;;;;;;5240273;28;20550;-50
2024/01/02 11:33:16;;;;;;;21.83;7.17;;;4.60;99.90;;;;;;5238051;28;20467;-51
2024/01/02 11:36:19;;;;;;;11.30;6.57;;;4.60;99.90;;;;;;5243341;28;21002;-52
2024/01/02 11:39:04;;;;;;;15.33;7.23;;;4.50;99.90;;;;;;5241298;28;20892;-50
2024/01/02 11:42:04;;;;;;;12.43;6.20;;;4.60;99.90;;;;;;5241988;28;20434;-52
2024/01/02 11:44:58;;;;;;;14.37;8.80;;;4.60;99.90;;;;;;5229181;28;20525;-52
2024/01/02 11:47:45;;;;;;;15.43;7.37;;;4.60;99.90;;;;;;5243796;28;20487;-52
2024/01/02 11:50:16;;;;;;;8.23;5.80;;;4.60;99.90;;;;;;5246399;28;20467;-51
2024/01/02 11:53:02;;;;;;;13.37;7.30;;;4.60;99.90;;;;;;5240615;28;20472;-53
2024/01/02 11:55:53;;;;;;;20.90;7.53;;;4.60;99.90;;;;;;5215003;28;20588;-52
2024/01/02 11:58:59;;;;;;;10.20;6.93;;;4.60;99.90;;;;;;5225578;28;20949;-53
2024/01/02 12:01:51;;;;;;;7.93;6.67;;;4.60;99.90;;;;;;5242292;28;20757;-51
2024/01/02 12:04:36;;;;;;;12.57;7.57;;;4.60;99.90;;;;;;5250018;28;20437;-50
2024/01/02 12:07:22;;;;;;;18.83;9.37;;;4.60;99.90;;;;;;5240300;28;20434;-52
2024/01/02 12:09:54;;;;;;;10.60;7.60;;;4.60;99.90;;;;;;5229166;28;20951;-51
2024/01/02 12:12:54;;;;;;;10.07;7.17;;;4.60;99.90;;;;;;5223216;28;20498;-51
2024/01/02 12:15:34;;;;;;;7.93;6.63;;;4.60;99.90;;;;;;5223634;28;20469;-52
2024/01/02 12:18:06;;;;;;;12.07;7.47;;;4.60;99.90;;;;;;5231494;28;20449;-50
2024/01/02 12:20:53;;;;;;;13.50;7.30;;;4.60;99.90;;;;;;5247027;28;20499;-51
2024/01/02 12:23:24;;;;;;;12.80;7.27;;;4.70;99.90;;;;;;5229077;28;20431;-52
2024/01/02 12:26:02;;;;;;;10.80;7.90;;;4.60;99.90;;;;;;5229416;28;20434;-52
2024/01/02 12:28:39;;;;;;;15.93;9.30;;;4.60;99.90;;;;;;5226482;28;20945;-52
2024/01/02 12:31:45;;;;;;;14.57;8.57;;;4.70;99.90;;;;;;5243517;28;20470;-51
2024/01/02 12:34:26;;;;;;;12.83;7.30;;;4.70;99.90;;;;;;5226204;28;20795;-50
2024/01/02 12:37:13;;;;;;;15.33;9.00;;;4.70;99.90;;;;;;5242539;28;20436;-52
2024/01/02 12:39:48;;;;;;;15.13;8.00;;;4.70;99.90;;;;;;5222134;28;20872;-54
2024/01/02 12:42:21;;;;;;;17.60;9.50;;;4.80;99.90;;;;;;5244232;28;20422;-54
2024/01/02 12:45:00;;;;;;;14.70;9.43;;;4.80;99.90;;;;;;5225142;28;20429;-51
2024/01/02 12:47:36;;;;;;;17.73;7.50;;;4.80;99.90;;;;;;5224673;28;20822;-51
2024/01/02 12:50:08;;;;;;;11.83;7.90;;;4.80;99.90;;;;;;5241336;28;20464;-51
2024/01/02 12:52:43;;;;;;;10.57;7.50;;;4.80;99.90;;;;;;5227171;28;20468;-51
2024/01/02 12:55:18;;;;;;;14.30;8.73;;;4.80;99.90;;;;;;5226898;28;20517;-52
2024/01/02 12:57:52;;;;;;;14.23;8.20;;;4.80;99.90;;;;;;5226356;28;20496;-51
2024/01/02 13:00:24;;;;;;;11.80;8.07;;;4.90;99.90;;;;;;5225554;28;20777;-50
2024/01/02 13:02:55;;;;;;;13.33;9.00;;;4.80;99.90;;;;;;5205965;28;21004;-53
2024/01/02 13:05:27;;;;;;;11.80;8.40;;;4.80;99.90;;;;;;5238425;28;20492;-53
2024/01/02 13:07:58;;;;;;;11.70;8.13;;;4.80;99.90;;;;;;5220079;28;20476;-50
2024/01/02 13:10:29;;;;;;;11.23;8.80;;;4.80;99.90;;;;;;5240533;28;20500;-52
2024/01/02 13:13:01;;;;;;;17.70;10.20;;;4.80;99.90;;;;;;5239563;28;20461;-52
2024/01/02 13:15:32;;;;;;;14.20;8.30;;;4.80;99.90;;;;;;5222871;28;20644;-52
2024/01/02 13:18:03;;;;;;;14.43;8.20;;;4.80;99.90;;;;;;5235914;28;20433;-50
2024/01/02 13:20:34;;;;;;;8.20;7.20;;;4.80;99.90;;;;;;5221981;28;20910;-51
2024/01/02 13:23:05;;;;;;;15.33;8.03;;;4.90;99.90;;;;;;5218286;28;20557;-51
2024/01/02 13:25:41;;;;;;;19.10;9.27;;;4.90;99.90;;;;;;5236280;28;20440;-51
2024/01/02 13:28:22;;;;;;;9.30;6.90;;;4.90;99.90;;;;;;5223265;28;21193;-52